Weather reports worldwide

Advertisment
Mont Aigoual, France (7560): temperature & dewpoint: 19.09.2018 12:00:00 - 25.09.2018 12:00:00 (CEST)Mont Aigoual, France (7560): wind speed & gusts: 19.09.2018 12:00:00 - 25.09.2018 12:00:00 (CEST)Mont Aigoual, France (7560): wind direction: 19.09.2018 12:00:00 - 25.09.2018 12:00:00 (CEST)Mont Aigoual, France (7560): visibility: 19.09.2018 12:00:00 - 25.09.2018 12:00:00 (CEST)Mont Aigoual, France (7560): precipitation: 19.09.2018 12:00:00 - 25.09.2018 12:00:00 (CEST)
Date & Time tt [°C] td [°C] ff [km/h] ff [kn] fx [km/h] fx [kn] dd vv [km] rr [mm]
25.09.2018 12:00:00 - - - - - - - - -
25.09.2018 11:00:00 9,2 7,3 36 19 49 27 S 20 0,0
25.09.2018 10:00:00 9,6 7,4 37 20 53 29 S 20 0,0
25.09.2018 09:00:00 8,8 5,9 37 20 50 27 SSE 20 0,0
25.09.2018 08:00:00 8,2 4,0 30 16 45 25 SE 20 0,0
25.09.2018 07:00:00 8,9 4,3 25 14 46 25 SE 20 0,0
25.09.2018 06:00:00 8,7 3,9 33 18 47 25 SE 20 0,0
25.09.2018 05:00:00 8,2 3,0 27 15 39 21 ESE 20 0,0
25.09.2018 04:00:00 7,8 1,0 24 13 36 19 E 20 0,0
25.09.2018 03:00:00 7,2 -0,5 22 12 34 19 NE 20 0,0
25.09.2018 02:00:00 5,8 -4,9 25 14 54 29 N 20 0,0
25.09.2018 01:00:00 6,7 -7,0 46 25 64 34 N 20 0,0
25.09.2018 00:00:00 5,1 -4,2 42 23 55 30 N 20 0,0
24.09.2018 23:00:00 5,0 -2,8 45 24 55 30 N 20 0,0
24.09.2018 22:00:00 4,9 -2,2 39 21 50 27 N 20 0,0
24.09.2018 21:00:00 4,9 -1,3 38 21 56 30 N 20 0,0
24.09.2018 20:00:00 4,8 -0,6 40 21 70 38 N 20 0,0
24.09.2018 19:00:00 6,0 -1,0 52 28 78 42 N 20 0,0
24.09.2018 18:00:00 6,8 -0,4 54 29 76 41 N 20 0,0
24.09.2018 17:00:00 8,5 -0,8 43 23 69 37 N 20 0,0
24.09.2018 16:00:00 9,0 0,4 48 26 79 42 NNW 20 0,0
24.09.2018 15:00:00 8,7 0,4 45 25 64 34 N 20 0,0
24.09.2018 14:00:00 8,6 0,3 26 14 48 26 N 20 0,0
24.09.2018 13:00:00 8,8 0,7 32 17 46 25 N 20 0,0
24.09.2018 12:00:00 7,2 1,3 34 19 65 35 N 20 0,0
24.09.2018 11:00:00 6,2 1,9 27 14 80 43 N 20 0,0
24.09.2018 10:00:00 4,8 2,7 54 29 97 53 N 20 0,0
24.09.2018 09:00:00 5,0 3,7 84 45 114 62 NNW 20 0,0
24.09.2018 08:00:00 5,1 5,0 70 38 111 60 N 9 0,0
24.09.2018 07:00:00 6,1 5,8 84 46 105 57 NNW 20 0,0
24.09.2018 06:00:00 7,4 7,4 61 33 91 49 NNW 1,7 0,0
24.09.2018 05:00:00 8,1 8,1 58 32 90 49 NNW 0,2 0,2
24.09.2018 04:00:00 9,1 9,1 59 32 89 48 N 0,2 0,2
24.09.2018 03:00:00 12,2 12,2 61 33 99 54 N 0,2 0,4
24.09.2018 02:00:00 12,0 12,0 61 33 95 51 NNW 0,1 0,0
24.09.2018 01:00:00 12,6 12,6 50 27 98 53 NNW 0,1 0,0
24.09.2018 00:00:00 12,6 12,6 51 28 87 47 NNW 0,1 0,0
23.09.2018 23:00:00 12,7 12,5 46 25 96 52 NNW 1,0 0,0
23.09.2018 22:00:00 13,0 11,9 56 31 101 55 NNW 20 0,0
23.09.2018 21:00:00 13,8 10,6 61 33 92 50 NNW 20 0,0
23.09.2018 20:00:00 14,7 11,1 49 27 82 45 NNW 20 0,0
23.09.2018 19:00:00 16,0 11,6 48 26 83 45 NNW 20 0,0
23.09.2018 18:00:00 17,0 11,5 56 31 89 48 NW 20 0,0
23.09.2018 17:00:00 17,7 10,8 54 29 83 45 NW 20 0,0
23.09.2018 16:00:00 18,2 12,0 45 24 71 39 NW 20 0,0
23.09.2018 15:00:00 18,6 12,3 41 22 65 35 NW 20 0,0
23.09.2018 14:00:00 17,7 11,9 38 20 56 30 NW 20 0,0
23.09.2018 13:00:00 16,5 12,1 40 21 56 31 NW 20 0,0
23.09.2018 12:00:00 15,3 11,3 42 23 72 39 NW 20 0,0
23.09.2018 11:00:00 13,7 11,4 56 30 81 44 NW 20 0,0
23.09.2018 10:00:00 12,6 10,8 62 34 88 48 NW 20 0,0
23.09.2018 09:00:00 11,7 10,9 66 35 89 48 NNW 20 0,0
23.09.2018 08:00:00 11,0 10,5 67 36 97 53 NNW 20 0,0
23.09.2018 07:00:00 10,9 10,4 68 37 96 52 NNW 10 0,0
23.09.2018 06:00:00 10,9 10,4 69 38 92 50 NNW 20 0,0
23.09.2018 05:00:00 10,7 10,1 74 40 95 51 NW 20 0,0
23.09.2018 04:00:00 10,3 9,5 72 39 99 54 NNW 19 0,0
23.09.2018 03:00:00 11,3 9,9 73 40 105 57 NNW 20 0,0
23.09.2018 02:00:00 11,1 7,0 72 39 102 55 NNW 20 0,0
23.09.2018 01:00:00 11,0 6,3 64 34 96 52 NNW 20 0,0
23.09.2018 00:00:00 11,5 5,4 70 38 100 54 NNW 20 0,0
22.09.2018 23:00:00 11,5 3,8 70 38 104 56 NNW 20 0,0
22.09.2018 22:00:00 11,7 2,7 68 37 93 50 NNW 20 0,0
22.09.2018 21:00:00 12,0 -0,2 69 37 88 48 NNW 20 0,0
22.09.2018 20:00:00 12,7 -7,9 57 31 74 40 NNW 20 0,0
22.09.2018 19:00:00 14,5 -8,9 47 25 64 34 NNW 20 0,0
22.09.2018 18:00:00 16,1 -6,9 38 20 65 35 NNW 20 0,0
22.09.2018 17:00:00 16,9 -11,8 42 23 66 36 NNW 20 0,0
22.09.2018 16:00:00 17,0 -13,7 44 24 59 32 NW 20 0,0
22.09.2018 15:00:00 16,3 -9,6 41 22 59 32 NW 20 0,0
22.09.2018 14:00:00 15,5 -4,5 31 17 58 32 NW 20 0,0
22.09.2018 13:00:00 14,3 -12,0 46 25 68 37 NNW 20 0,0
22.09.2018 12:00:00 13,8 -15,2 45 24 68 37 NW 20 0,0
22.09.2018 11:00:00 12,9 -12,4 50 27 74 40 NNW 20 0,0
22.09.2018 10:00:00 12,2 -19,8 49 26 78 42 NNW 20 0,0
22.09.2018 09:00:00 10,6 -16,8 52 28 86 47 NNW 20 0,0
22.09.2018 08:00:00 9,8 -18,3 51 28 87 47 NNW 20 0,0
22.09.2018 07:00:00 10,0 -15,5 58 31 86 47 NNW 20 0,0
22.09.2018 06:00:00 8,8 -10,7 58 32 81 44 NNW 20 0,0
22.09.2018 05:00:00 7,9 -4,6 56 30 81 44 NW 20 0,0
22.09.2018 04:00:00 8,4 -4,4 60 32 92 50 NW 20 0,0
22.09.2018 03:00:00 8,1 -0,7 74 40 104 56 NW 20 0,0
22.09.2018 02:00:00 8,6 0,8 77 42 109 59 NW 20 0,0
22.09.2018 01:00:00 8,4 7,0 73 40 95 51 NNW 20 0,0
22.09.2018 00:00:00 10,3 10,3 46 25 75 41 NNW 0,1 0,0
21.09.2018 23:00:00 10,7 10,7 51 27 83 45 NNW 0,1 0,0
21.09.2018 22:00:00 11,3 11,3 46 25 86 47 NNW 0,1 0,0
21.09.2018 21:00:00 11,5 10,6 53 29 90 49 NNW 20 0,0
21.09.2018 20:00:00 12,1 10,0 59 32 90 48 NNW 20 0,0
21.09.2018 19:00:00 13,0 10,0 51 27 76 41 NW 20 0,0
21.09.2018 18:00:00 14,1 9,7 38 21 64 35 NNW 20 0,0
21.09.2018 17:00:00 15,9 8,9 32 17 48 26 NW 20 0,0
21.09.2018 16:00:00 16,4 7,9 29 16 50 27 NW 20 0,0
21.09.2018 15:00:00 17,7 10,8 24 13 44 24 NW 20 0,0
21.09.2018 14:00:00 17,9 11,7 23 12 41 22 WNW 20 0,0
21.09.2018 13:00:00 18,3 9,9 14 7 40 22 W 20 0,0
21.09.2018 12:00:00 17,2 8,6 23 12 36 19 W 20 0,0
21.09.2018 11:00:00 17,5 9,1 11 6 36 19 WSW 20 0,0
21.09.2018 10:00:00 17,2 8,6 19 10 37 20 WSW 20 0,0
21.09.2018 09:00:00 16,5 6,9 18 10 35 19 WSW 20 0,0
21.09.2018 08:00:00 15,3 7,3 27 15 42 23 WSW 20 0,0
21.09.2018 07:00:00 15,4 7,4 29 16 44 24 WSW 20 0,0
21.09.2018 06:00:00 15,8 6,5 32 18 47 25 SW 20 0,0
21.09.2018 05:00:00 15,4 8,8 36 19 46 25 WSW 20 0,0
21.09.2018 04:00:00 15,7 7,2 29 16 36 19 WSW 20 0,0
21.09.2018 03:00:00 16,2 6,6 26 14 35 19 WSW 20 0,0
21.09.2018 02:00:00 16,1 6,0 24 13 32 17 WSW 20 0,0
21.09.2018 01:00:00 16,1 8,1 19 10 25 14 WSW 20 0,0
21.09.2018 00:00:00 16,7 6,8 18 10 21 11 W 20 0,0
20.09.2018 23:00:00 16,7 6,2 15 8 27 14 W 20 0,0
20.09.2018 22:00:00 16,7 6,8 23 12 32 17 W 20 0,0
20.09.2018 21:00:00 16,9 9,1 24 13 36 19 WSW 20 0,0
20.09.2018 20:00:00 17,5 10,8 21 12 32 17 S 20 0,0
20.09.2018 19:00:00 19,7 9,6 22 12 36 20 S 20 0,0
20.09.2018 18:00:00 20,5 9,1 24 13 36 20 S 20 0,0
20.09.2018 17:00:00 20,3 9,2 16 9 29 15 S 20 0,0
20.09.2018 16:00:00 20,2 10,0 16 9 26 14 S 20 0,0
20.09.2018 15:00:00 19,4 10,9 6 4 20 11 S 20 0,0
20.09.2018 14:00:00 18,7 9,2 6 4 21 11 S 20 0,0
20.09.2018 13:00:00 17,2 9,6 3 1 11 6 SSW 20 0,0
20.09.2018 12:00:00 16,5 9,2 6 3 21 12 NW 20 0,0
20.09.2018 11:00:00 16,9 10,7 4 2 16 9 NW 19 0,0
20.09.2018 10:00:00 16,2 11,1 8 5 22 12 NW 20 0,0
20.09.2018 09:00:00 15,1 10,5 15 8 26 14 NW 20 0,0
20.09.2018 08:00:00 14,5 10,1 24 13 29 15 NW 20 0,0
20.09.2018 07:00:00 14,4 10,0 22 12 24 13 NW 20 0,0
20.09.2018 06:00:00 14,8 9,8 18 10 19 10 NW 20 0,0
20.09.2018 05:00:00 15,3 9,9 7 4 9 5 NW 20 0,0
20.09.2018 04:00:00 15,4 9,5 5 3 15 8 E 20 0,0
20.09.2018 03:00:00 15,5 10,5 11 6 15 8 E 20 0,0
20.09.2018 02:00:00 15,6 10,6 8 4 17 9 E 20 0,0
20.09.2018 01:00:00 15,4 9,3 16 9 27 14 N 20 0,0
20.09.2018 00:00:00 15,7 9,8 24 13 37 20 N 20 0,0
19.09.2018 23:00:00 15,2 10,6 24 13 43 23 NNW 20 0,0
19.09.2018 22:00:00 15,4 11,2 37 20 50 27 NNW 20 0,0
19.09.2018 21:00:00 16,1 11,0 28 15 39 21 NNW 20 0,0
19.09.2018 20:00:00 17,2 9,6 14 8 24 13 NW 20 0,0
19.09.2018 19:00:00 18,6 10,2 8 5 19 11 SSW 20 0,0
19.09.2018 18:00:00 19,2 10,5 10 5 25 13 S 20 0,0
19.09.2018 17:00:00 20,2 10,3 14 8 28 15 S 20 0,0
19.09.2018 16:00:00 19,6 10,8 5 3 25 13 SSE 20 0,0
19.09.2018 15:00:00 19,8 10,8 11 6 34 18 SSE 20 0,0
19.09.2018 14:00:00 18,7 10,3 4 2 29 16 E 20 0,0
19.09.2018 13:00:00 18,1 10,5 12 6 29 16 SSW 20 0,0
19.09.2018 12:00:00 17,7 11,9 6 4 23 12 SSE 20 0,0

tt = temperature
td = dewpoint
ff = wind speed
fx = gusts
dd = wind direction
vv = visibility
rr = precipitation

Next stations